createdAt,value
2022-09-26T00:01:36.065Z,100.00
2022-09-26T00:04:08.862Z,100.00
2022-09-26T00:06:35.680Z,100.00
2022-09-26T00:09:02.494Z,100.00
2022-09-26T00:11:31.648Z,100.00
2022-09-26T00:14:02.575Z,100.00
2022-09-26T00:16:29.535Z,100.00
2022-09-26T00:18:56.893Z,100.00
2022-09-26T00:21:24.141Z,100.00
2022-09-26T00:23:50.985Z,100.00
2022-09-26T00:26:18.632Z,100.00
2022-09-26T00:28:45.432Z,100.00
2022-09-26T00:31:13.939Z,100.00
2022-09-26T00:33:40.802Z,100.00
2022-09-26T00:36:07.723Z,100.00
2022-09-26T00:38:34.537Z,100.00
2022-09-26T00:41:01.880Z,100.00
2022-09-26T00:43:39.403Z,100.00
2022-09-26T00:46:15.421Z,100.00
2022-09-26T00:48:43.462Z,100.00
2022-09-26T00:51:11.169Z,100.00
2022-09-26T00:53:40.941Z,100.00
2022-09-26T00:56:11.160Z,100.00
2022-09-26T00:58:38.027Z,100.00
2022-09-26T01:01:05.027Z,100.00
2022-09-26T01:03:32.535Z,100.00
2022-09-26T01:06:00.217Z,100.00
2022-09-26T01:08:32.146Z,100.00
2022-09-26T01:10:59.377Z,100.00
2022-09-26T01:13:26.774Z,100.00
2022-09-26T01:15:53.599Z,100.00
2022-09-26T01:18:20.425Z,100.00
2022-09-26T01:20:47.416Z,100.00
2022-09-26T01:23:14.204Z,100.00
2022-09-26T01:25:44.393Z,100.00
2022-09-26T01:28:34.590Z,100.00
2022-09-26T01:31:13.759Z,100.00
2022-09-26T01:33:52.512Z,100.00
2022-09-26T01:36:27.821Z,100.00
2022-09-26T01:38:56.172Z,100.00
2022-09-26T01:41:38.010Z,100.00
2022-09-26T01:44:20.023Z,100.00
2022-09-26T01:46:51.957Z,100.00
2022-09-26T01:49:26.098Z,100.00
2022-09-26T01:51:56.002Z,100.00
2022-09-26T01:54:25.234Z,100.00
2022-09-26T01:56:54.482Z,100.00
2022-09-26T01:59:34.489Z,100.00
2022-09-26T02:02:07.531Z,100.00
2022-09-26T02:04:37.006Z,100.00
2022-09-26T02:07:13.777Z,100.00
2022-09-26T02:09:46.833Z,100.00
2022-09-26T02:12:17.541Z,100.00
2022-09-26T02:14:47.253Z,100.00
2022-09-26T02:17:17.673Z,100.00
2022-09-26T02:19:56.292Z,100.00
2022-09-26T02:22:27.503Z,100.00
2022-09-26T02:24:54.612Z,100.00
2022-09-26T02:27:21.617Z,100.00
2022-09-26T02:29:48.467Z,100.00
2022-09-26T02:32:19.122Z,100.00
2022-09-26T02:34:48.220Z,100.00
2022-09-26T02:37:16.204Z,100.00
2022-09-26T02:39:44.617Z,100.00
2022-09-26T02:42:18.118Z,100.00
2022-09-26T02:44:58.903Z,100.00
2022-09-26T02:47:25.695Z,100.00
2022-09-26T02:50:08.235Z,100.00
2022-09-26T02:52:35.228Z,100.00
2022-09-26T02:55:11.575Z,100.00
2022-09-26T02:58:14.150Z,100.00
2022-09-26T03:00:48.198Z,100.00
2022-09-26T03:03:22.246Z,100.00
2022-09-26T03:05:53.060Z,100.00
2022-09-26T03:08:25.089Z,100.00
2022-09-26T03:10:53.139Z,100.00
2022-09-26T03:13:20.393Z,100.00
2022-09-26T03:15:50.393Z,100.00
2022-09-26T03:18:19.784Z,100.00
2022-09-26T03:20:46.850Z,100.00
2022-09-26T03:23:13.738Z,100.00
2022-09-26T03:25:42.836Z,100.00
2022-09-26T03:28:12.216Z,100.00
2022-09-26T03:30:39.826Z,100.00
2022-09-26T03:33:25.327Z,100.00
2022-09-26T03:35:53.571Z,100.00
2022-09-26T03:38:21.508Z,100.00
2022-09-26T03:40:56.858Z,100.00
2022-09-26T03:43:45.115Z,100.00
2022-09-26T03:46:13.617Z,100.00
2022-09-26T03:48:40.498Z,100.00
2022-09-26T03:51:08.778Z,100.00
2022-09-26T03:53:36.989Z,100.00
2022-09-26T03:56:12.021Z,100.00
2022-09-26T03:58:39.119Z,100.00
2022-09-26T04:01:08.090Z,100.00
2022-09-26T04:03:39.186Z,100.00
2022-09-26T04:06:08.449Z,100.00
2022-09-26T04:08:39.910Z,100.00
2022-09-26T04:11:08.420Z,100.00
2022-09-26T04:13:52.970Z,100.00
2022-09-26T04:16:23.523Z,100.00
2022-09-26T04:18:59.827Z,100.00
2022-09-26T04:21:28.530Z,100.00
2022-09-26T04:23:55.883Z,100.00
2022-09-26T04:26:24.246Z,100.00
2022-09-26T04:28:54.633Z,100.00
2022-09-26T04:31:27.545Z,100.00
2022-09-26T04:34:01.478Z,100.00
2022-09-26T04:36:28.303Z,100.00
2022-09-26T04:38:55.162Z,100.00
2022-09-26T04:41:22.124Z,100.00
2022-09-26T04:43:49.833Z,100.00
2022-09-26T04:46:22.353Z,100.00
2022-09-26T04:48:52.435Z,100.00
2022-09-26T04:51:22.310Z,100.00
2022-09-26T04:53:50.878Z,100.00
2022-09-26T04:56:25.141Z,100.00
2022-09-26T04:58:52.174Z,100.00
2022-09-26T05:01:20.260Z,100.00
2022-09-26T05:03:58.282Z,100.00
2022-09-26T05:06:26.949Z,100.00
2022-09-26T05:08:54.706Z,100.00
2022-09-26T05:11:37.677Z,100.00
2022-09-26T05:14:08.767Z,100.00
2022-09-26T05:16:37.099Z,100.00
2022-09-26T05:19:04.350Z,100.00
2022-09-26T05:21:33.480Z,100.00
2022-09-26T05:24:18.870Z,100.00
2022-09-26T05:26:48.784Z,100.00
2022-09-26T05:29:16.084Z,100.00
2022-09-26T05:31:54.160Z,100.00
2022-09-26T05:34:24.871Z,100.00
2022-09-26T05:36:52.875Z,100.00
2022-09-26T05:39:42.262Z,100.00
2022-09-26T05:42:10.415Z,100.00
2022-09-26T05:44:39.007Z,100.00
2022-09-26T05:47:05.892Z,100.00
2022-09-26T05:49:33.961Z,100.00
2022-09-26T05:52:00.869Z,100.00
2022-09-26T05:54:28.735Z,100.00
2022-09-26T05:56:56.621Z,100.00
2022-09-26T05:59:36.402Z,100.00
2022-09-26T06:02:21.804Z,100.00
2022-09-26T06:05:09.158Z,100.00
2022-09-26T06:07:58.628Z,100.00
2022-09-26T06:10:48.280Z,100.00
2022-09-26T06:13:15.299Z,100.00
2022-09-26T06:15:52.567Z,100.00
2022-09-26T06:18:20.369Z,100.00
2022-09-26T06:20:47.179Z,100.00
2022-09-26T06:23:14.170Z,100.00
2022-09-26T06:25:43.785Z,100.00
2022-09-26T06:28:12.909Z,100.00
2022-09-26T06:30:40.051Z,100.00
2022-09-26T06:33:12.372Z,100.00
2022-09-26T06:36:04.737Z,100.00
2022-09-26T06:38:36.550Z,100.00
2022-09-26T06:41:05.255Z,100.00
2022-09-26T06:43:32.234Z,100.00
2022-09-26T06:46:17.645Z,100.00
2022-09-26T06:49:02.608Z,100.00
2022-09-26T06:51:54.622Z,100.00
2022-09-26T06:54:21.498Z,100.00
2022-09-26T06:56:48.374Z,100.00
2022-09-26T06:59:17.055Z,100.00
2022-09-26T07:01:54.233Z,100.00
2022-09-26T07:04:39.752Z,100.00
2022-09-26T07:07:16.159Z,100.00
2022-09-26T07:09:43.130Z,100.00
2022-09-26T07:12:32.506Z,100.00
2022-09-26T07:15:00.313Z,100.00
2022-09-26T07:17:29.711Z,100.00
2022-09-26T07:20:11.731Z,100.00
2022-09-26T07:22:57.826Z,100.00
2022-09-26T07:25:24.648Z,100.00
2022-09-26T07:27:52.214Z,100.00
2022-09-26T07:30:23.357Z,100.00
2022-09-26T07:33:02.970Z,100.00
2022-09-26T07:35:35.667Z,100.00
2022-09-26T07:38:03.410Z,100.00
2022-09-26T07:40:30.945Z,100.00
2022-09-26T07:43:20.090Z,99.11
2022-09-26T07:46:09.609Z,96.94
2022-09-26T07:48:56.194Z,96.07
2022-09-26T07:51:54.217Z,97.03
2022-09-26T07:54:22.807Z,96.36
2022-09-26T07:57:08.992Z,95.06
2022-09-26T07:59:54.207Z,93.17
2022-09-26T08:02:50.825Z,94.03
2022-09-26T08:05:20.023Z,93.65
2022-09-26T08:07:48.745Z,93.89
2022-09-26T08:10:35.815Z,91.51
2022-09-26T08:13:21.233Z,92.28
2022-09-26T08:16:06.205Z,91.71
2022-09-26T08:18:38.113Z,89.83
2022-09-26T08:21:05.734Z,88.82
2022-09-26T08:23:33.303Z,89.55
2022-09-26T08:26:23.802Z,88.48
2022-09-26T08:28:55.879Z,86.67
2022-09-26T08:31:23.341Z,87.92
2022-09-26T08:33:50.303Z,85.66
2022-09-26T08:36:17.428Z,83.83
2022-09-26T08:38:53.019Z,82.43
2022-09-26T08:41:46.074Z,80.54
2022-09-26T08:44:53.966Z,80.82
2022-09-26T08:47:50.146Z,80.32
2022-09-26T08:50:32.680Z,81.19
2022-09-26T08:53:06.239Z,77.12
2022-09-26T08:55:41.682Z,77.32
2022-09-26T08:58:15.207Z,80.16
2022-09-26T09:00:42.257Z,78.94
2022-09-26T09:03:20.879Z,77.60
2022-09-26T09:06:03.690Z,78.63
2022-09-26T09:08:41.824Z,78.70
2022-09-26T09:11:25.025Z,78.83
2022-09-26T09:13:51.829Z,80.31
2022-09-26T09:16:55.858Z,80.33
2022-09-26T09:19:42.872Z,78.92
2022-09-26T09:22:41.622Z,80.37
2022-09-26T09:25:14.925Z,82.11
2022-09-26T09:27:54.467Z,80.96
2022-09-26T09:30:32.838Z,80.98
2022-09-26T09:33:24.038Z,81.46
2022-09-26T09:36:16.908Z,81.29
2022-09-26T09:39:08.322Z,80.17
2022-09-26T09:41:50.805Z,77.58
2022-09-26T09:44:46.218Z,79.52
2022-09-26T09:47:17.839Z,79.88
2022-09-26T09:49:46.557Z,81.52
2022-09-26T09:52:22.705Z,81.95
2022-09-26T09:55:05.927Z,81.47
2022-09-26T09:57:33.116Z,81.58
2022-09-26T10:00:11.664Z,80.60
2022-09-26T10:03:11.415Z,82.55
2022-09-26T10:05:45.243Z,81.91
2022-09-26T10:08:19.929Z,84.50
2022-09-26T10:11:12.773Z,83.84
2022-09-26T10:14:12.214Z,85.11
2022-09-26T10:17:09.993Z,87.10
2022-09-26T10:19:57.150Z,86.07
2022-09-26T10:22:32.594Z,89.02
2022-09-26T10:25:19.953Z,89.17
2022-09-26T10:27:50.017Z,88.97
2022-09-26T10:30:20.179Z,90.57
2022-09-26T10:32:58.693Z,90.49
2022-09-26T10:35:52.700Z,93.74
2022-09-26T10:38:22.701Z,94.60
2022-09-26T10:41:21.582Z,95.55
2022-09-26T10:43:55.606Z,92.38
2022-09-26T10:46:57.915Z,94.31
2022-09-26T10:49:45.102Z,95.15
2022-09-26T10:52:36.643Z,95.52
2022-09-26T10:55:06.876Z,94.57
2022-09-26T10:57:40.673Z,96.03
2022-09-26T11:00:07.944Z,94.44
2022-09-26T11:02:35.610Z,93.63
2022-09-26T11:05:23.730Z,95.51
2022-09-26T11:08:30.058Z,94.95
2022-09-26T11:11:15.137Z,95.40
2022-09-26T11:14:01.654Z,96.75
2022-09-26T11:16:32.523Z,95.96
2022-09-26T11:19:14.595Z,95.28
2022-09-26T11:21:41.634Z,97.07
2022-09-26T11:24:15.261Z,95.43
2022-09-26T11:26:56.984Z,95.79
2022-09-26T11:29:36.063Z,96.52
2022-09-26T11:32:12.510Z,97.35
2022-09-26T11:34:45.445Z,97.07
2022-09-26T11:37:30.006Z,97.48
2022-09-26T11:39:58.494Z,98.04
2022-09-26T11:42:41.502Z,99.75
2022-09-26T11:45:15.467Z,99.81
2022-09-26T11:48:01.004Z,100.00
2022-09-26T11:50:44.659Z,100.00
2022-09-26T11:53:34.796Z,100.00
2022-09-26T11:56:10.738Z,100.00
2022-09-26T11:58:39.980Z,98.33
2022-09-26T12:01:07.449Z,100.00
2022-09-26T12:03:53.252Z,100.00
2022-09-26T12:06:34.912Z,100.00
2022-09-26T12:09:20.775Z,100.00
2022-09-26T12:11:47.913Z,100.00
2022-09-26T12:14:23.209Z,100.00
2022-09-26T12:16:55.280Z,99.96
2022-09-26T12:19:27.023Z,100.00
2022-09-26T12:22:23.273Z,100.00
2022-09-26T12:25:03.260Z,100.00
2022-09-26T12:27:49.781Z,100.00
2022-09-26T12:30:20.025Z,100.00
2022-09-26T12:33:05.868Z,100.00
2022-09-26T12:35:32.654Z,100.00
2022-09-26T12:38:08.619Z,100.00
2022-09-26T12:40:44.816Z,100.00
2022-09-26T12:43:13.833Z,100.00
2022-09-26T12:45:53.721Z,100.00
2022-09-26T12:48:32.830Z,100.00
2022-09-26T12:51:22.237Z,100.00
2022-09-26T12:53:49.084Z,100.00
2022-09-26T12:56:17.492Z,100.00
2022-09-26T12:58:50.221Z,100.00
2022-09-26T13:01:37.589Z,98.75
2022-09-26T13:04:23.184Z,98.11
2022-09-26T13:07:20.071Z,99.64
2022-09-26T13:10:02.524Z,98.45
2022-09-26T13:12:33.404Z,96.93
2022-09-26T13:15:23.023Z,97.04
2022-09-26T13:18:02.880Z,95.20
2022-09-26T13:20:43.596Z,97.05
2022-09-26T13:23:26.134Z,97.11
2022-09-26T13:25:56.492Z,95.85
2022-09-26T13:29:06.437Z,94.47
2022-09-26T13:31:40.307Z,95.28
2022-09-26T13:34:13.189Z,94.82
2022-09-26T13:36:42.185Z,92.09
2022-09-26T13:39:13.262Z,93.07
2022-09-26T13:42:01.248Z,92.12
2022-09-26T13:44:37.099Z,92.32
2022-09-26T13:47:03.944Z,92.43
2022-09-26T13:49:30.834Z,91.61
2022-09-26T13:51:58.256Z,91.08
2022-09-26T13:54:27.473Z,90.30
2022-09-26T13:56:55.920Z,88.09
2022-09-26T13:59:25.918Z,87.61
2022-09-26T14:02:11.421Z,87.98
2022-09-26T14:04:38.325Z,85.91
2022-09-26T14:07:29.906Z,86.65
2022-09-26T14:10:08.033Z,82.69
2022-09-26T14:12:55.216Z,86.63
2022-09-26T14:15:24.396Z,86.11
2022-09-26T14:17:51.216Z,85.82
2022-09-26T14:20:22.662Z,87.66
2022-09-26T14:22:51.167Z,89.87
2022-09-26T14:25:36.933Z,85.54
2022-09-26T14:28:12.406Z,87.23
2022-09-26T14:30:39.330Z,84.30
2022-09-26T14:33:12.229Z,85.07
2022-09-26T14:35:39.535Z,82.56
2022-09-26T14:38:13.283Z,85.02
2022-09-26T14:40:51.860Z,86.95
2022-09-26T14:43:19.507Z,86.65
2022-09-26T14:45:46.301Z,84.02
2022-09-26T14:48:26.000Z,86.87
2022-09-26T14:50:55.615Z,85.83
2022-09-26T14:53:35.263Z,86.25
2022-09-26T14:56:06.205Z,83.98
2022-09-26T14:58:46.326Z,85.61
2022-09-26T15:01:25.259Z,85.62
2022-09-26T15:03:54.875Z,87.54
2022-09-26T15:06:22.650Z,87.10
2022-09-26T15:08:49.477Z,90.58
2022-09-26T15:11:32.940Z,91.37
2022-09-26T15:14:02.980Z,89.43
2022-09-26T15:16:40.691Z,91.15
2022-09-26T15:19:16.170Z,92.53
2022-09-26T15:21:44.450Z,91.86
2022-09-26T15:24:28.329Z,94.79
2022-09-26T15:26:56.283Z,95.46
2022-09-26T15:29:23.259Z,94.77
2022-09-26T15:31:51.821Z,95.89
2022-09-26T15:34:35.480Z,96.34
2022-09-26T15:37:08.942Z,95.81
2022-09-26T15:39:37.274Z,98.00
2022-09-26T15:42:31.685Z,96.95
2022-09-26T15:44:59.640Z,97.61
2022-09-26T15:47:29.859Z,99.03
2022-09-26T15:50:02.827Z,99.57
2022-09-26T15:52:30.507Z,100.00
2022-09-26T15:54:57.456Z,100.00
2022-09-26T15:57:24.277Z,100.00
2022-09-26T15:59:51.454Z,99.87
2022-09-26T16:02:22.252Z,100.00
2022-09-26T16:04:51.594Z,100.00
2022-09-26T16:07:20.556Z,100.00
2022-09-26T16:09:48.777Z,100.00
2022-09-26T16:12:15.690Z,100.00
2022-09-26T16:15:02.762Z,100.00
2022-09-26T16:17:32.230Z,100.00
2022-09-26T16:20:02.672Z,100.00
2022-09-26T16:22:36.624Z,100.00
2022-09-26T16:25:15.599Z,100.00
2022-09-26T16:27:43.006Z,100.00
2022-09-26T16:30:23.617Z,100.00
2022-09-26T16:32:51.393Z,100.00
2022-09-26T16:35:19.629Z,100.00
2022-09-26T16:37:59.460Z,100.00
2022-09-26T16:40:30.603Z,100.00
2022-09-26T16:43:06.851Z,100.00
2022-09-26T16:45:33.706Z,100.00
2022-09-26T16:48:00.562Z,100.00
2022-09-26T16:50:29.004Z,100.00
2022-09-26T16:52:56.053Z,100.00
2022-09-26T16:55:24.208Z,100.00
2022-09-26T16:57:55.638Z,100.00
2022-09-26T17:00:42.676Z,100.00
2022-09-26T17:03:23.949Z,100.00
2022-09-26T17:05:51.555Z,100.00
2022-09-26T17:08:18.480Z,100.00
2022-09-26T17:10:46.105Z,100.00
2022-09-26T17:13:21.606Z,100.00
2022-09-26T17:15:55.771Z,100.00
2022-09-26T17:18:24.362Z,100.00
2022-09-26T17:20:51.204Z,100.00
2022-09-26T17:23:38.814Z,100.00
2022-09-26T17:26:08.802Z,100.00
2022-09-26T17:28:37.474Z,100.00
2022-09-26T17:31:07.506Z,100.00
2022-09-26T17:33:40.291Z,100.00
2022-09-26T17:36:10.734Z,100.00
2022-09-26T17:38:40.191Z,100.00
2022-09-26T17:41:07.289Z,100.00
2022-09-26T17:43:35.040Z,100.00
2022-09-26T17:46:01.911Z,100.00
2022-09-26T17:48:31.219Z,100.00
2022-09-26T17:51:02.631Z,100.00
2022-09-26T17:53:36.617Z,100.00
2022-09-26T17:56:06.189Z,100.00
2022-09-26T17:58:34.054Z,100.00
2022-09-26T18:01:03.568Z,100.00
2022-09-26T18:03:32.770Z,100.00
2022-09-26T18:06:00.266Z,100.00
2022-09-26T18:08:29.282Z,100.00
2022-09-26T18:10:57.711Z,100.00
2022-09-26T18:13:27.582Z,100.00
2022-09-26T18:15:55.691Z,100.00
2022-09-26T18:18:23.523Z,100.00
2022-09-26T18:20:52.368Z,100.00
2022-09-26T18:23:24.049Z,100.00
2022-09-26T18:25:51.947Z,100.00
2022-09-26T18:28:20.707Z,100.00
2022-09-26T18:30:49.394Z,100.00
2022-09-26T18:33:17.616Z,100.00
2022-09-26T18:35:45.542Z,100.00
2022-09-26T18:38:15.280Z,100.00
2022-09-26T18:40:50.748Z,100.00
2022-09-26T18:43:19.151Z,100.00
2022-09-26T18:45:46.398Z,100.00
2022-09-26T18:48:23.911Z,100.00
2022-09-26T18:50:51.362Z,100.00
2022-09-26T18:53:20.084Z,100.00
2022-09-26T18:56:05.761Z,100.00
2022-09-26T18:58:33.901Z,100.00
2022-09-26T19:01:05.215Z,100.00
2022-09-26T19:03:39.665Z,100.00
2022-09-26T19:06:12.451Z,100.00
2022-09-26T19:08:47.110Z,100.00
2022-09-26T19:11:15.567Z,100.00
2022-09-26T19:13:43.405Z,100.00
2022-09-26T19:16:10.693Z,100.00
2022-09-26T19:18:38.374Z,100.00
2022-09-26T19:21:08.130Z,100.00
2022-09-26T19:23:35.849Z,100.00
2022-09-26T19:26:05.372Z,100.00
2022-09-26T19:28:34.413Z,100.00
2022-09-26T19:31:02.767Z,100.00
2022-09-26T19:33:29.810Z,100.00
2022-09-26T19:35:56.700Z,100.00
2022-09-26T19:38:24.787Z,100.00
2022-09-26T19:40:53.229Z,100.00
2022-09-26T19:43:20.910Z,100.00
2022-09-26T19:45:51.219Z,100.00
2022-09-26T19:48:19.452Z,100.00
2022-09-26T19:50:47.165Z,100.00
2022-09-26T19:53:18.579Z,100.00
2022-09-26T19:55:48.636Z,100.00
2022-09-26T19:58:22.962Z,100.00
2022-09-26T20:00:51.488Z,100.00
2022-09-26T20:03:19.590Z,100.00
2022-09-26T20:05:47.150Z,100.00
2022-09-26T20:08:16.286Z,100.00
2022-09-26T20:10:43.482Z,100.00
2022-09-26T20:13:10.503Z,100.00
2022-09-26T20:15:37.397Z,100.00
2022-09-26T20:18:05.614Z,100.00
2022-09-26T20:20:32.709Z,100.00
2022-09-26T20:22:59.531Z,100.00
2022-09-26T20:25:27.921Z,100.00
2022-09-26T20:27:55.532Z,100.00
2022-09-26T20:30:41.662Z,100.00
2022-09-26T20:33:09.634Z,100.00
2022-09-26T20:35:40.027Z,100.00
2022-09-26T20:38:09.954Z,100.00
2022-09-26T20:40:37.854Z,100.00
2022-09-26T20:43:07.669Z,100.00
2022-09-26T20:45:39.246Z,100.00
2022-09-26T20:48:08.463Z,100.00
2022-09-26T20:50:38.352Z,100.00
2022-09-26T20:53:18.738Z,100.00
2022-09-26T20:55:48.802Z,100.00
2022-09-26T20:58:15.869Z,100.00
2022-09-26T21:00:43.395Z,100.00
2022-09-26T21:03:11.978Z,100.00
2022-09-26T21:05:39.000Z,100.00
2022-09-26T21:08:09.967Z,100.00
2022-09-26T21:10:36.847Z,100.00
2022-09-26T21:13:03.680Z,100.00
2022-09-26T21:15:32.139Z,100.00
2022-09-26T21:18:00.169Z,100.00
2022-09-26T21:20:29.017Z,100.00
2022-09-26T21:23:26.125Z,100.00
2022-09-26T21:25:53.007Z,100.00
2022-09-26T21:28:27.782Z,100.00
2022-09-26T21:30:57.083Z,100.00
2022-09-26T21:33:24.012Z,100.00
2022-09-26T21:35:51.067Z,100.00
2022-09-26T21:38:19.119Z,100.00
2022-09-26T21:40:47.256Z,100.00
2022-09-26T21:43:15.549Z,100.00
2022-09-26T21:45:43.865Z,100.00
2022-09-26T21:48:11.400Z,100.00
2022-09-26T21:50:43.499Z,100.00
2022-09-26T21:53:13.385Z,100.00
2022-09-26T21:55:43.008Z,100.00
2022-09-26T21:58:13.043Z,100.00
2022-09-26T22:00:40.253Z,100.00
2022-09-26T22:03:07.071Z,100.00
2022-09-26T22:05:33.961Z,100.00
2022-09-26T22:08:01.735Z,100.00
2022-09-26T22:10:29.340Z,100.00
2022-09-26T22:12:56.250Z,100.00
2022-09-26T22:15:23.080Z,100.00
2022-09-26T22:17:49.982Z,100.00
2022-09-26T22:20:16.874Z,100.00
2022-09-26T22:22:43.795Z,100.00
2022-09-26T22:25:10.619Z,100.00
2022-09-26T22:27:38.569Z,100.00
2022-09-26T22:30:06.270Z,100.00
2022-09-26T22:32:33.098Z,100.00
2022-09-26T22:34:59.901Z,100.00
2022-09-26T22:37:26.771Z,100.00
2022-09-26T22:39:53.584Z,100.00
2022-09-26T22:42:20.462Z,100.00
2022-09-26T22:44:47.382Z,100.00
2022-09-26T22:47:14.201Z,100.00
2022-09-26T22:49:41.034Z,100.00
2022-09-26T22:52:07.902Z,100.00
2022-09-26T22:54:34.739Z,100.00
2022-09-26T22:57:01.667Z,100.00
2022-09-26T22:59:28.816Z,100.00
2022-09-26T23:01:56.292Z,100.00
2022-09-26T23:04:23.130Z,100.00
2022-09-26T23:06:50.030Z,100.00
2022-09-26T23:09:16.917Z,100.00
2022-09-26T23:11:43.786Z,100.00
2022-09-26T23:14:10.730Z,100.00
2022-09-26T23:16:38.369Z,100.00
2022-09-26T23:19:05.303Z,100.00
2022-09-26T23:21:32.108Z,100.00
2022-09-26T23:24:00.223Z,100.00
2022-09-26T23:26:28.599Z,100.00
2022-09-26T23:28:56.370Z,100.00
2022-09-26T23:31:25.223Z,100.00
2022-09-26T23:33:53.717Z,100.00
2022-09-26T23:36:20.604Z,100.00
2022-09-26T23:38:47.477Z,100.00
2022-09-26T23:41:14.664Z,100.00
2022-09-26T23:43:41.822Z,100.00
2022-09-26T23:46:09.403Z,100.00
2022-09-26T23:48:36.568Z,100.00
2022-09-26T23:51:03.830Z,100.00
2022-09-26T23:53:30.969Z,100.00
2022-09-26T23:56:08.321Z,100.00
2022-09-26T23:58:35.691Z,100.00
